Time;durP1;ratioP1;P1;durP2;ratioP2;P2;SDS_P1;SDS_P2;PMS_P1;PMS_P2;Temp;Humidity;BMP_temperature;BMP_pressure;BME280_temperature;BME280_humidity;BME280_pressure;Samples;Min_cycle;Max_cycle;Signal;HPM_P1;HPM_P2
2023/04/24 00:04:25;;;;;;;6.22;4.35;;;18.50;79.30;;;;;;10905012;32;20045;-74
2023/04/24 00:10:27;;;;;;;5.95;3.85;;;18.50;79.20;;;;;;10904404;32;20012;-75
2023/04/24 00:16:30;;;;;;;7.25;4.00;;;18.40;79.20;;;;;;10904989;32;20416;-75
2023/04/24 00:22:33;;;;;;;11.82;7.82;;;18.30;79.20;;;;;;10903743;32;20015;-74
2023/04/24 00:28:35;;;;;;;10.13;6.18;;;18.30;79.20;;;;;;10909301;32;20027;-74
2023/04/24 00:34:38;;;;;;;9.18;4.65;;;18.20;79.20;;;;;;10897484;32;20050;-74
2023/04/24 00:40:40;;;;;;;14.70;6.97;;;18.20;79.50;;;;;;10895863;32;20061;-74
2023/04/24 00:46:43;;;;;;;9.02;5.12;;;18.20;79.60;;;;;;10910123;32;20322;-74
2023/04/24 00:52:45;;;;;;;9.50;5.00;;;18.10;79.60;;;;;;10911128;32;20022;-74
2023/04/24 00:58:47;;;;;;;6.43;4.87;;;18.10;79.70;;;;;;10910991;32;20298;-74
2023/04/24 01:04:52;;;;;;;5.78;4.20;;;18.00;79.70;;;;;;10911749;32;20313;-75
2023/04/24 01:10:56;;;;;;;9.38;5.43;;;18.00;79.70;;;;;;10908759;32;20028;-74
2023/04/24 01:16:58;;;;;;;12.02;5.37;;;18.00;79.50;;;;;;10910111;32;20037;-74
2023/04/24 01:23:02;;;;;;;7.78;5.12;;;18.00;79.50;;;;;;10910650;32;20461;-74
2023/04/24 01:29:04;;;;;;;6.72;5.12;;;17.90;79.60;;;;;;10897518;32;20028;-74
2023/04/24 01:35:07;;;;;;;6.95;5.20;;;17.90;79.80;;;;;;10910160;32;20381;-74
2023/04/24 01:41:10;;;;;;;7.18;4.90;;;17.90;79.90;;;;;;10904885;32;20019;-74
2023/04/24 01:47:13;;;;;;;6.87;5.05;;;18.00;79.60;;;;;;10907008;32;20053;-74
2023/04/24 01:53:15;;;;;;;8.75;6.00;;;18.00;79.80;;;;;;10908924;32;20051;-74
2023/04/24 01:59:18;;;;;;;6.20;4.45;;;17.90;80.00;;;;;;10908145;32;20406;-74
2023/04/24 02:05:20;;;;;;;7.00;4.07;;;17.80;80.10;;;;;;10909040;32;20313;-74
2023/04/24 02:11:23;;;;;;;7.18;4.47;;;17.90;80.10;;;;;;10908069;32;20023;-74
2023/04/24 02:17:26;;;;;;;9.82;6.82;;;17.90;80.30;;;;;;10894862;32;20042;-74
2023/04/24 02:23:28;;;;;;;7.30;5.15;;;17.90;80.60;;;;;;10908407;32;20016;-74
2023/04/24 02:29:30;;;;;;;7.90;6.32;;;17.80;80.70;;;;;;10908175;32;20031;-74
2023/04/24 02:35:32;;;;;;;7.10;4.43;;;17.70;81.00;;;;;;10907692;32;20309;-74
2023/04/24 02:41:34;;;;;;;7.57;5.45;;;17.80;81.00;;;;;;10906685;32;20061;-74
2023/04/24 02:47:36;;;;;;;6.07;4.15;;;17.80;80.70;;;;;;10906671;32;20303;-75
2023/04/24 02:53:38;;;;;;;11.27;6.53;;;17.80;80.60;;;;;;10893405;32;20027;-74
2023/04/24 02:59:40;;;;;;;9.02;5.50;;;17.80;80.70;;;;;;10906602;32;20023;-74
2023/04/24 03:05:42;;;;;;;7.32;5.65;;;17.70;80.60;;;;;;10906941;32;20431;-73
2023/04/24 03:11:45;;;;;;;7.60;4.35;;;17.70;80.70;;;;;;10906704;32;20055;-73
2023/04/24 03:17:47;;;;;;;6.25;3.35;;;17.70;80.50;;;;;;10903888;32;20053;-73
2023/04/24 03:23:49;;;;;;;5.03;3.50;;;17.70;80.60;;;;;;10903503;32;20027;-72
2023/04/24 03:29:55;;;;;;;6.18;3.90;;;17.70;80.50;;;;;;10901313;32;20357;-73
2023/04/24 03:35:58;;;;;;;7.25;4.25;;;17.70;80.30;;;;;;10905564;32;20019;-73
2023/04/24 03:42:00;;;;;;;6.15;5.12;;;17.70;80.40;;;;;;10901130;32;20035;-73
2023/04/24 03:48:03;;;;;;;4.85;3.50;;;17.80;80.20;;;;;;10905523;32;20018;-73
2023/04/24 03:54:05;;;;;;;5.47;4.32;;;17.70;80.20;;;;;;10901472;32;20362;-73
2023/04/24 04:00:09;;;;;;;5.90;4.20;;;17.70;80.30;;;;;;10903621;32;20038;-73
2023/04/24 04:06:19;;;;;;;5.97;3.45;;;17.70;80.20;;;;;;10901013;32;20030;-73
2023/04/24 04:12:21;;;;;;;6.18;3.60;;;17.70;80.20;;;;;;10905009;32;20341;-73
2023/04/24 04:18:24;;;;;;;7.37;3.78;;;17.70;80.10;;;;;;10889919;32;20471;-73
2023/04/24 04:24:26;;;;;;;6.82;2.70;;;17.70;80.10;;;;;;10889824;32;20050;-73
2023/04/24 04:30:32;;;;;;;4.03;2.62;;;17.70;80.00;;;;;;10887092;32;20031;-73
2023/04/24 04:36:41;;;;;;;4.85;3.10;;;17.70;80.00;;;;;;10903457;32;20019;-74
2023/04/24 04:42:47;;;;;;;5.62;3.72;;;17.70;80.00;;;;;;10903292;32;20351;-73
2023/04/24 04:48:50;;;;;;;9.23;5.03;;;17.60;80.20;;;;;;10903091;32;20053;-74
2023/04/24 04:54:52;;;;;;;6.95;5.72;;;17.60;80.20;;;;;;10903037;32;20046;-73
2023/04/24 05:00:57;;;;;;;6.05;3.70;;;17.50;80.20;;;;;;10904308;32;20394;-74
2023/04/24 05:07:00;;;;;;;5.72;3.92;;;17.30;80.10;;;;;;10903540;32;20023;-74
2023/04/24 05:13:04;;;;;;;8.55;5.87;;;17.30;80.20;;;;;;10893764;32;20327;-76
2023/04/24 05:19:07;;;;;;;8.68;6.10;;;17.20;80.20;;;;;;10909583;32;20022;-75
2023/04/24 05:25:09;;;;;;;7.35;4.82;;;17.10;80.90;;;;;;10910384;32;20054;-76
2023/04/24 05:31:12;;;;;;;5.70;4.25;;;17.10;80.90;;;;;;10909159;32;20038;-77
2023/04/24 05:37:15;;;;;;;9.93;6.75;;;17.10;80.90;;;;;;10906653;32;20448;-76
2023/04/24 05:43:17;;;;;;;7.95;5.85;;;17.10;80.80;;;;;;10907825;32;20042;-76
2023/04/24 05:49:19;;;;;;;9.52;6.43;;;17.10;80.80;;;;;;10906859;32;20073;-76
2023/04/24 05:55:22;;;;;;;16.27;10.30;;;17.00;80.80;;;;;;10908326;32;20015;-75
2023/04/24 06:01:31;;;;;;;8.40;5.47;;;17.00;80.90;;;;;;10909347;32;20015;-75
2023/04/24 06:07:34;;;;;;;11.10;6.87;;;16.90;81.20;;;;;;10895295;32;20369;-74
2023/04/24 06:13:38;;;;;;;18.37;9.57;;;16.90;81.30;;;;;;10895719;32;20027;-74
2023/04/24 06:19:50;;;;;;;11.90;7.47;;;16.90;81.20;;;;;;10905178;32;20038;-74
2023/04/24 06:25:52;;;;;;;15.75;8.50;;;16.80;81.40;;;;;;10907081;32;20361;-75
2023/04/24 06:32:04;;;;;;;16.70;9.05;;;16.80;81.40;;;;;;10903846;32;20432;-75
2023/04/24 06:38:07;;;;;;;18.52;10.55;;;16.80;81.50;;;;;;10893329;32;20393;-75
2023/04/24 06:44:11;;;;;;;9.32;6.10;;;16.80;81.50;;;;;;10894432;32;20012;-74
2023/04/24 06:50:20;;;;;;;11.02;7.95;;;16.80;81.60;;;;;;10906780;32;20306;-74
2023/04/24 06:57:00;;;;;;;13.35;11.27;;;16.90;81.60;;;;;;10902799;32;20015;-74
2023/04/24 07:03:04;;;;;;;15.48;9.65;;;16.90;81.70;;;;;;10907031;32;20049;-75
2023/04/24 07:09:09;;;;;;;6.93;5.57;;;16.80;81.90;;;;;;10906305;32;20019;-75
2023/04/24 07:15:13;;;;;;;5.35;4.07;;;16.80;81.90;;;;;;10889248;32;20024;-74
2023/04/24 07:21:23;;;;;;;5.40;4.22;;;16.90;81.50;;;;;;10906520;32;20321;-75
2023/04/24 07:27:25;;;;;;;5.90;4.15;;;16.80;81.30;;;;;;10891307;32;20070;-76
2023/04/24 07:33:27;;;;;;;6.30;3.67;;;16.90;81.20;;;;;;10906039;32;20011;-74
2023/04/24 07:39:29;;;;;;;10.77;5.20;;;16.80;80.90;;;;;;10905163;32;20019;-73
2023/04/24 07:45:33;;;;;;;6.90;4.90;;;16.70;80.40;;;;;;10903696;32;20049;-72
2023/04/24 07:51:38;;;;;;;6.30;3.92;;;16.50;80.60;;;;;;10915994;27;20070;-74
2023/04/24 07:57:40;;;;;;;7.30;6.00;;;16.50;80.80;;;;;;10942829;32;20062;-74
2023/04/24 08:03:42;;;;;;;7.53;5.18;;;16.50;82.10;;;;;;10942194;32;20034;-75
2023/04/24 08:09:44;;;;;;;9.65;7.60;;;16.40;83.20;;;;;;10941981;32;20030;-74
2023/04/24 08:15:46;;;;;;;9.68;7.82;;;16.40;84.10;;;;;;10942410;32;20411;-73
2023/04/24 08:21:48;;;;;;;6.10;5.12;;;16.30;84.50;;;;;;10927482;32;20039;-76
2023/04/24 08:27:51;;;;;;;9.63;6.05;;;16.20;84.30;;;;;;10942230;32;20023;-74
2023/04/24 08:33:53;;;;;;;7.03;5.40;;;16.30;84.40;;;;;;10942009;32;20439;-73
2023/04/24 08:39:55;;;;;;;5.18;3.65;;;16.50;84.40;;;;;;10940903;32;20054;-75
2023/04/24 08:45:57;;;;;;;6.22;4.20;;;16.50;84.20;;;;;;10939380;32;20451;-75
2023/04/24 08:52:00;;;;;;;5.43;3.95;;;16.60;84.20;;;;;;10948605;32;20023;-74
2023/04/24 08:58:02;;;;;;;5.03;3.53;;;16.70;84.00;;;;;;10949788;32;20019;-74
2023/04/24 09:04:07;;;;;;;3.40;2.92;;;16.80;84.00;;;;;;10948325;32;20038;-74
2023/04/24 09:10:09;;;;;;;3.37;2.72;;;16.80;84.10;;;;;;10920884;32;20046;-75
2023/04/24 09:16:12;;;;;;;2.47;2.17;;;17.00;83.90;;;;;;10946480;32;20057;-74
2023/04/24 09:22:15;;;;;;;2.50;1.80;;;17.00;83.70;;;;;;10934922;32;20018;-74
2023/04/24 09:28:17;;;;;;;3.62;2.78;;;16.90;83.50;;;;;;10948234;32;20050;-74
2023/04/24 09:34:26;;;;;;;2.00;1.52;;;16.80;83.20;;;;;;10948112;32;20023;-75
2023/04/24 09:40:28;;;;;;;1.98;1.87;;;16.80;82.70;;;;;;10947783;32;20295;-75
2023/04/24 09:46:32;;;;;;;2.85;2.22;;;17.00;82.80;;;;;;10947585;32;20083;-74
2023/04/24 09:52:35;;;;;;;3.05;1.83;;;17.20;82.90;;;;;;10933462;32;20348;-74
2023/04/24 09:58:37;;;;;;;2.15;1.45;;;17.50;82.40;;;;;;10932867;32;20018;-74
2023/04/24 10:04:39;;;;;;;4.25;2.53;;;17.80;82.20;;;;;;10944175;32;20042;-74
2023/04/24 10:10:45;;;;;;;4.60;2.42;;;18.10;81.90;;;;;;10945905;32;20388;-73
2023/04/24 10:16:47;;;;;;;2.87;2.47;;;18.00;81.30;;;;;;10946319;32;20019;-73
2023/04/24 10:22:51;;;;;;;2.65;1.98;;;17.70;79.90;;;;;;10932824;32;20046;-74
2023/04/24 10:28:57;;;;;;;3.33;2.05;;;17.60;81.10;;;;;;10942037;32;20381;-74
2023/04/24 10:34:59;;;;;;;2.78;1.80;;;17.60;81.20;;;;;;10931685;32;20038;-74
2023/04/24 10:41:22;;;;;;;3.62;2.35;;;17.60;81.30;;;;;;10945128;32;20019;-74
2023/04/24 10:47:25;;;;;;;3.78;2.30;;;17.50;80.60;;;;;;10945379;32;20054;-73
2023/04/24 10:53:31;;;;;;;2.50;1.73;;;17.50;80.10;;;;;;10944256;32;20042;-74
2023/04/24 10:59:37;;;;;;;5.50;2.67;;;17.50;80.70;;;;;;10929968;32;20038;-74
2023/04/24 11:06:06;;;;;;;4.32;2.70;;;17.80;80.50;;;;;;10943443;32;20035;-73
2023/04/24 11:12:14;;;;;;;3.47;2.70;;;18.00;80.70;;;;;;10942577;32;20030;-74
2023/04/24 11:18:16;;;;;;;4.87;2.87;;;18.20;81.10;;;;;;10944412;32;20023;-74
2023/04/24 11:24:46;;;;;;;3.35;2.70;;;18.20;80.90;;;;;;10939410;32;20014;-73
2023/04/24 11:30:51;;;;;;;3.00;2.12;;;18.20;80.60;;;;;;10753502;33;20024;-75
2023/04/24 11:36:53;;;;;;;3.92;2.00;;;18.40;80.50;;;;;;10750062;33;20036;-74
2023/04/24 11:42:56;;;;;;;3.83;2.08;;;18.50;80.60;;;;;;10753794;33;20315;-75
2023/04/24 11:48:59;;;;;;;3.17;2.62;;;18.80;80.40;;;;;;10753172;33;20395;-74
2023/04/24 11:55:01;;;;;;;4.18;2.35;;;19.20;80.00;;;;;;10752399;33;20033;-74
2023/04/24 12:01:05;;;;;;;3.55;2.47;;;19.10;79.10;;;;;;10752091;33;20047;-74
2023/04/24 12:07:10;;;;;;;4.12;2.05;;;19.10;78.60;;;;;;10855909;32;20031;-73
2023/04/24 12:13:13;;;;;;;3.55;1.77;;;19.30;79.40;;;;;;10905056;32;20405;-74
2023/04/24 12:19:20;;;;;;;1.33;0.90;;;19.50;78.60;;;;;;10900440;32;20081;-72
2023/04/24 12:25:31;;;;;;;1.33;1.15;;;19.70;79.00;;;;;;10913362;32;20058;-74
2023/04/24 12:31:33;;;;;;;1.27;1.00;;;19.70;78.40;;;;;;10913203;32;20011;-73
2023/04/24 12:37:36;;;;;;;0.62;0.60;;;19.80;78.90;;;;;;10916528;32;20066;-74
2023/04/24 12:43:38;;;;;;;1.00;0.68;;;19.80;77.70;;;;;;10916920;32;20061;-73
2023/04/24 12:49:40;;;;;;;1.00;0.85;;;19.90;78.20;;;;;;10916797;32;20015;-74
2023/04/24 12:55:44;;;;;;;2.03;1.25;;;20.10;78.80;;;;;;10911838;32;20019;-73
2023/04/24 13:01:46;;;;;;;2.47;1.02;;;20.00;77.40;;;;;;10914458;32;20317;-74
2023/04/24 13:07:48;;;;;;;0.80;0.80;;;20.20;77.40;;;;;;10901253;32;20023;-73
2023/04/24 13:13:51;;;;;;;0.90;0.90;;;20.30;75.70;;;;;;10916471;32;20385;-73
2023/04/24 13:19:55;;;;;;;0.68;0.55;;;20.50;74.50;;;;;;10914001;32;20409;-74
2023/04/24 13:25:57;;;;;;;0.52;0.52;;;20.60;72.50;;;;;;10916229;32;20460;-73
2023/04/24 13:32:00;;;;;;;1.00;0.80;;;20.80;72.10;;;;;;10908910;32;20035;-73
2023/04/24 13:38:05;;;;;;;2.65;0.70;;;21.00;72.90;;;;;;10896887;32;20024;-73
2023/04/24 13:44:07;;;;;;;0.88;0.55;;;20.90;72.10;;;;;;10909252;32;20007;-73
2023/04/24 13:50:10;;;;;;;3.62;0.75;;;21.00;71.80;;;;;;10909699;32;20136;-73
2023/04/24 13:56:13;;;;;;;1.20;0.80;;;21.20;70.80;;;;;;10944954;32;20352;-75
2023/04/24 14:02:15;;;;;;;2.15;0.75;;;21.20;69.30;;;;;;10947076;32;20412;-74
2023/04/24 14:08:18;;;;;;;0.50;0.50;;;21.10;69.00;;;;;;10946250;32;20050;-74
2023/04/24 14:14:20;;;;;;;2.90;1.05;;;20.90;70.00;;;;;;10946700;32;20037;-74
2023/04/24 14:20:23;;;;;;;0.52;0.40;;;21.00;68.70;;;;;;10946537;32;20019;-74
2023/04/24 14:26:25;;;;;;;0.62;0.50;;;21.10;67.80;;;;;;10929667;32;20092;-73
2023/04/24 14:32:27;;;;;;;1.10;0.40;;;21.40;67.40;;;;;;10918780;32;20027;-75
2023/04/24 14:38:31;;;;;;;0.75;0.73;;;21.50;67.40;;;;;;10908007;32;20412;-73
2023/04/24 14:44:33;;;;;;;3.22;0.60;;;21.50;66.20;;;;;;10894000;32;20424;-74
2023/04/24 14:50:35;;;;;;;0.40;0.40;;;21.50;66.20;;;;;;10922674;32;20095;-73
2023/04/24 14:56:40;;;;;;;0.30;0.30;;;21.60;65.90;;;;;;10928395;32;20424;-73
2023/04/24 15:02:44;;;;;;;0.77;0.30;;;21.80;66.00;;;;;;10944784;32;20384;-73
2023/04/24 15:08:46;;;;;;;0.22;0.22;;;21.90;65.90;;;;;;10931904;32;20050;-73
2023/04/24 15:14:48;;;;;;;0.15;0.15;;;22.20;65.80;;;;;;10929030;32;20431;-72
2023/04/24 15:20:50;;;;;;;0.85;0.40;;;22.30;64.90;;;;;;10942081;32;20019;-74
2023/04/24 15:27:11;;;;;;;0.30;0.30;;;22.30;64.00;;;;;;10930213;32;20014;-73
2023/04/24 15:33:13;;;;;;;0.55;0.55;;;22.30;62.60;;;;;;10943065;32;20015;-73
2023/04/24 15:39:16;;;;;;;0.57;0.30;;;22.40;62.50;;;;;;10941848;32;20076;-73
2023/04/24 15:45:18;;;;;;;0.45;0.40;;;22.60;61.50;;;;;;10943649;32;20388;-73
2023/04/24 15:51:20;;;;;;;0.40;0.20;;;22.50;62.10;;;;;;10946731;27;20488;-73
2023/04/24 15:57:22;;;;;;;0.22;0.22;;;22.50;61.40;;;;;;10941934;32;20046;-73
2023/04/24 16:03:24;;;;;;;0.75;0.40;;;22.40;61.10;;;;;;10942617;32;20046;-73
2023/04/24 16:09:26;;;;;;;5.10;0.75;;;22.40;61.10;;;;;;10928261;32;20388;-73
2023/04/24 16:15:29;;;;;;;0.73;0.50;;;22.20;61.10;;;;;;10904974;32;20049;-73
2023/04/24 16:21:31;;;;;;;1.75;0.80;;;21.60;63.40;;;;;;10901104;32;20023;-73
2023/04/24 16:27:34;;;;;;;0.35;0.35;;;21.20;63.90;;;;;;10890036;32;20066;-73
2023/04/24 16:33:36;;;;;;;2.30;0.93;;;20.80;64.70;;;;;;10891131;32;20077;-73
2023/04/24 16:39:43;;;;;;;1.45;0.82;;;20.40;65.50;;;;;;10904147;32;20090;-73
2023/04/24 16:45:45;;;;;;;0.85;0.65;;;20.30;65.60;;;;;;10904601;32;20378;-73
2023/04/24 16:51:47;;;;;;;1.50;0.60;;;20.20;66.30;;;;;;10890844;32;20054;-73
2023/04/24 16:57:49;;;;;;;2.75;0.68;;;20.20;66.30;;;;;;10904185;32;20106;-73
2023/04/24 17:03:52;;;;;;;0.77;0.70;;;20.10;65.90;;;;;;10903735;32;20027;-73
2023/04/24 17:09:54;;;;;;;4.10;1.45;;;20.00;66.10;;;;;;10907101;32;20031;-73
2023/04/24 17:15:57;;;;;;;1.10;0.80;;;19.80;66.30;;;;;;10896308;32;20077;-72
2023/04/24 17:21:59;;;;;;;2.08;1.25;;;19.60;67.60;;;;;;10906942;32;20033;-72
2023/04/24 17:28:01;;;;;;;2.12;0.90;;;19.40;67.70;;;;;;10910519;32;20031;-72
2023/04/24 17:34:03;;;;;;;0.75;0.62;;;19.30;67.80;;;;;;10909722;32;20054;-73
2023/04/24 17:40:06;;;;;;;1.05;0.62;;;19.40;67.80;;;;;;10925071;32;20065;-73
2023/04/24 17:46:08;;;;;;;1.50;1.00;;;19.50;68.20;;;;;;10941702;32;20034;-73
2023/04/24 17:52:10;;;;;;;0.47;0.47;;;19.50;68.40;;;;;;10917446;32;20027;-73
2023/04/24 17:58:13;;;;;;;0.73;0.60;;;19.60;68.80;;;;;;10906697;32;20046;-73
2023/04/24 18:04:15;;;;;;;4.68;0.88;;;19.50;69.00;;;;;;10908073;32;20019;-73
2023/04/24 18:10:17;;;;;;;1.23;1.00;;;19.50;69.00;;;;;;10908895;32;20078;-73
2023/04/24 18:16:20;;;;;;;2.22;1.17;;;19.30;69.40;;;;;;10895624;32;20377;-73
2023/04/24 18:22:22;;;;;;;0.98;0.85;;;19.30;70.60;;;;;;10907968;32;20019;-73
2023/04/24 18:28:24;;;;;;;1.10;1.00;;;19.20;71.10;;;;;;10907652;32;20035;-73
2023/04/24 18:34:27;;;;;;;2.70;0.80;;;19.20;71.20;;;;;;10908312;32;20077;-73
2023/04/24 18:40:29;;;;;;;1.48;0.90;;;19.20;71.20;;;;;;10907527;32;20428;-73
2023/04/24 18:46:36;;;;;;;2.30;1.17;;;19.10;71.40;;;;;;10887714;32;20057;-73
2023/04/24 18:52:38;;;;;;;3.95;1.50;;;19.00;71.80;;;;;;10893955;32;20432;-73
2023/04/24 18:58:43;;;;;;;4.85;2.12;;;18.80;72.20;;;;;;10904148;32;20381;-73
2023/04/24 19:04:45;;;;;;;2.12;1.40;;;18.60;73.00;;;;;;10907175;32;20037;-73
2023/04/24 19:10:47;;;;;;;2.10;1.77;;;18.50;73.60;;;;;;10880066;32;20465;-73
2023/04/24 19:16:49;;;;;;;1.67;1.17;;;18.50;74.30;;;;;;10892491;32;20096;-73
2023/04/24 19:22:52;;;;;;;2.05;1.42;;;18.50;74.50;;;;;;10905847;32;20293;-73
2023/04/24 19:28:56;;;;;;;1.08;0.80;;;18.60;75.00;;;;;;10903459;32;20427;-73
2023/04/24 19:34:58;;;;;;;2.05;1.20;;;18.60;74.90;;;;;;10926394;32;20019;-73
2023/04/24 19:41:00;;;;;;;2.72;1.85;;;18.60;75.00;;;;;;10942858;32;20050;-73
2023/04/24 19:47:03;;;;;;;1.42;1.10;;;18.50;75.30;;;;;;10943487;32;20041;-73
2023/04/24 19:53:07;;;;;;;3.35;1.60;;;18.50;75.20;;;;;;10939446;32;20031;-73
2023/04/24 19:59:09;;;;;;;2.45;1.80;;;18.50;75.30;;;;;;10942276;32;20061;-73
2023/04/24 20:05:12;;;;;;;3.30;2.10;;;18.30;75.20;;;;;;10939137;32;20023;-73
2023/04/24 20:11:14;;;;;;;2.00;1.60;;;18.20;75.50;;;;;;10823027;32;20437;-73
2023/04/24 20:17:16;;;;;;;2.58;1.62;;;18.20;75.60;;;;;;10784162;33;20024;-73
2023/04/24 20:23:18;;;;;;;3.10;1.70;;;18.10;75.70;;;;;;10771940;33;20055;-73
2023/04/24 20:29:20;;;;;;;2.33;1.58;;;18.10;76.30;;;;;;10788002;33;20417;-73
2023/04/24 20:35:22;;;;;;;3.47;2.12;;;18.00;76.30;;;;;;10787519;33;20021;-73
2023/04/24 20:41:25;;;;;;;4.55;2.33;;;18.00;76.10;;;;;;10786947;33;20097;-73
2023/04/24 20:47:27;;;;;;;5.37;1.92;;;18.00;76.10;;;;;;10779456;33;20056;-73
2023/04/24 20:53:29;;;;;;;3.17;2.00;;;18.00;75.90;;;;;;10793300;33;20029;-73
2023/04/24 20:59:31;;;;;;;3.65;2.17;;;18.00;76.20;;;;;;10793870;33;20398;-73
2023/04/24 21:05:33;;;;;;;3.78;2.10;;;18.00;76.40;;;;;;10793042;33;20036;-73
2023/04/24 21:11:35;;;;;;;4.80;2.12;;;18.00;76.50;;;;;;10843492;32;20047;-73
2023/04/24 21:17:38;;;;;;;2.05;1.48;;;18.00;76.30;;;;;;10791960;33;20028;-73
2023/04/24 21:23:40;;;;;;;2.78;1.48;;;17.90;76.70;;;;;;10792840;33;20024;-73
2023/04/24 21:29:42;;;;;;;3.03;2.25;;;17.90;77.10;;;;;;10842671;32;20043;-73
2023/04/24 21:35:44;;;;;;;3.58;2.05;;;17.90;77.10;;;;;;10793148;33;20024;-73
2023/04/24 21:41:46;;;;;;;3.30;2.03;;;17.70;77.90;;;;;;10792461;33;20056;-73
2023/04/24 21:47:48;;;;;;;2.65;1.73;;;17.80;77.80;;;;;;10792233;33;20062;-73
2023/04/24 21:53:50;;;;;;;5.35;1.95;;;17.80;77.80;;;;;;10836798;32;20028;-73
2023/04/24 21:59:52;;;;;;;1.48;1.35;;;17.60;78.20;;;;;;10792469;33;20021;-73
2023/04/24 22:05:55;;;;;;;2.20;2.00;;;17.50;78.20;;;;;;10791830;33;20032;-73
2023/04/24 22:11:57;;;;;;;3.08;2.33;;;17.40;78.20;;;;;;10792238;33;20078;-73
2023/04/24 22:18:00;;;;;;;4.82;3.62;;;17.40;78.40;;;;;;10840071;32;20036;-73
2023/04/24 22:24:01;;;;;;;4.25;2.53;;;17.30;78.80;;;;;;10789969;33;20059;-73
2023/04/24 22:30:44;;;;;;;6.68;3.97;;;17.40;78.50;;;;;;10791262;33;20387;-73
2023/04/24 22:36:47;;;;;;;3.87;2.75;;;17.20;78.50;;;;;;10839372;32;20020;-73
2023/04/24 22:42:49;;;;;;;4.82;2.62;;;17.10;79.20;;;;;;10790804;33;20024;-73
2023/04/24 22:48:50;;;;;;;3.72;3.05;;;17.20;79.30;;;;;;10790532;33;20043;-73
2023/04/24 22:54:52;;;;;;;8.13;3.85;;;17.20;79.20;;;;;;10788895;33;20051;-73
2023/04/24 23:00:54;;;;;;;4.95;3.15;;;17.20;78.70;;;;;;10790779;33;20019;-73
2023/04/24 23:06:57;;;;;;;5.82;2.67;;;17.30;78.50;;;;;;10789560;33;20047;-73
2023/04/24 23:12:59;;;;;;;2.62;2.15;;;17.20;78.20;;;;;;10839903;32;20342;-73
2023/04/24 23:19:01;;;;;;;3.85;2.45;;;17.20;78.70;;;;;;10840939;32;20051;-73
2023/04/24 23:25:03;;;;;;;3.08;1.98;;;17.10;79.00;;;;;;10790104;33;20034;-73
2023/04/24 23:31:06;;;;;;;3.72;2.55;;;17.00;79.70;;;;;;10825881;32;20044;-73
2023/04/24 23:37:08;;;;;;;4.43;2.20;;;16.90;80.20;;;;;;10789729;33;20025;-73
2023/04/24 23:43:11;;;;;;;6.95;2.17;;;16.90;80.00;;;;;;10825649;32;20398;-74
2023/04/24 23:49:13;;;;;;;2.97;1.80;;;16.70;79.80;;;;;;10840252;32;20032;-74
2023/04/24 23:55:15;;;;;;;2.33;1.70;;;16.50;79.90;;;;;;10270969;33;17092253;-73
